createdAt,value
2023-05-01T00:02:12.217Z,15.70
2023-05-01T00:04:39.207Z,15.60
2023-05-01T00:07:06.181Z,15.40
2023-05-01T00:09:33.399Z,15.30
2023-05-01T00:12:00.434Z,15.30
2023-05-01T00:14:28.213Z,15.30
2023-05-01T00:16:55.330Z,15.60
2023-05-01T00:19:22.305Z,15.40
2023-05-01T00:21:51.597Z,15.50
2023-05-01T00:24:18.627Z,15.50
2023-05-01T00:26:45.516Z,15.70
2023-05-01T00:29:13.334Z,15.60
2023-05-01T00:31:42.305Z,15.70
2023-05-01T00:34:10.488Z,15.50
2023-05-01T00:36:37.618Z,15.40
2023-05-01T00:39:07.824Z,15.50
2023-05-01T00:41:35.784Z,15.50
2023-05-01T00:44:03.244Z,15.70
2023-05-01T00:46:32.241Z,15.70
2023-05-01T00:48:59.401Z,15.50
2023-05-01T00:51:29.831Z,15.50
2023-05-01T00:53:59.798Z,15.40
2023-05-01T00:56:26.827Z,15.40
2023-05-01T00:58:55.289Z,15.20
2023-05-01T01:01:22.325Z,15.10
2023-05-01T01:03:51.635Z,15.10
2023-05-01T01:06:42.941Z,15.20
2023-05-01T01:09:32.990Z,15.20
2023-05-01T01:12:23.796Z,14.90
2023-05-01T01:15:16.507Z,14.90
2023-05-01T01:17:46.708Z,15.00
2023-05-01T01:20:30.630Z,15.00
2023-05-01T01:23:41.149Z,15.00
2023-05-01T01:26:13.797Z,15.10
2023-05-01T01:28:56.567Z,15.30
2023-05-01T01:31:32.663Z,15.40
2023-05-01T01:34:04.445Z,15.30
2023-05-01T01:36:34.796Z,15.30
2023-05-01T01:39:14.787Z,15.30
2023-05-01T01:41:47.685Z,15.20
2023-05-01T01:44:23.648Z,15.10
2023-05-01T01:46:53.034Z,14.80
2023-05-01T01:49:24.497Z,14.80
2023-05-01T01:51:53.380Z,15.00
2023-05-01T01:54:27.278Z,15.10
2023-05-01T01:56:56.757Z,15.20
2023-05-01T01:59:25.439Z,15.20
2023-05-01T02:01:58.968Z,15.30
2023-05-01T02:04:27.861Z,15.30
2023-05-01T02:07:00.033Z,15.30
2023-05-01T02:09:29.638Z,15.10
2023-05-01T02:11:57.518Z,14.80
2023-05-01T02:14:26.983Z,14.60
2023-05-01T02:16:58.775Z,14.40
2023-05-01T02:19:29.463Z,14.30
2023-05-01T02:21:58.282Z,14.30
2023-05-01T02:24:27.274Z,14.60
2023-05-01T02:27:12.450Z,14.80
2023-05-01T02:29:39.643Z,14.90
2023-05-01T02:32:06.704Z,15.00
2023-05-01T02:34:36.542Z,15.00
2023-05-01T02:37:06.249Z,14.90
2023-05-01T02:39:33.547Z,14.90
2023-05-01T02:42:03.328Z,14.80
2023-05-01T02:44:38.417Z,14.90
2023-05-01T02:47:07.850Z,14.80
2023-05-01T02:49:37.954Z,14.60
2023-05-01T02:52:06.001Z,14.70
2023-05-01T02:54:35.239Z,14.70
2023-05-01T02:57:05.382Z,14.90
2023-05-01T02:59:33.550Z,14.90
2023-05-01T03:02:00.455Z,14.90
2023-05-01T03:04:27.817Z,14.90
2023-05-01T03:06:55.767Z,14.80
2023-05-01T03:09:22.717Z,14.70
2023-05-01T03:11:49.813Z,14.80
2023-05-01T03:14:17.567Z,14.80
2023-05-01T03:16:44.752Z,14.80
2023-05-01T03:19:13.758Z,14.60
2023-05-01T03:21:40.890Z,14.60
2023-05-01T03:24:08.248Z,14.70
2023-05-01T03:26:36.109Z,14.70
2023-05-01T03:29:03.304Z,14.70
2023-05-01T03:31:31.487Z,14.60
2023-05-01T03:33:59.025Z,14.60
2023-05-01T03:36:26.650Z,14.60
2023-05-01T03:38:53.425Z,14.60
2023-05-01T03:41:20.190Z,14.50
2023-05-01T03:43:47.056Z,14.50
2023-05-01T03:46:13.937Z,14.50
2023-05-01T03:48:41.240Z,14.30
2023-05-01T03:51:08.388Z,14.10
2023-05-01T03:53:36.825Z,14.10
2023-05-01T03:56:04.666Z,14.00
2023-05-01T03:58:31.401Z,14.10
2023-05-01T04:01:00.809Z,14.20
2023-05-01T04:03:28.671Z,14.20
2023-05-01T04:05:56.013Z,14.20
2023-05-01T04:08:22.941Z,14.20
2023-05-01T04:10:49.660Z,14.20
2023-05-01T04:13:16.460Z,14.10
2023-05-01T04:15:47.420Z,14.10
2023-05-01T04:18:14.518Z,14.20
2023-05-01T04:20:41.440Z,14.10
2023-05-01T04:23:09.530Z,14.20
2023-05-01T04:25:37.010Z,14.10
2023-05-01T04:28:03.975Z,14.00
2023-05-01T04:30:33.841Z,13.90
2023-05-01T04:33:00.814Z,13.90
2023-05-01T04:35:30.027Z,13.80
2023-05-01T04:37:56.883Z,14.00
2023-05-01T04:40:23.923Z,14.20
2023-05-01T04:42:50.923Z,14.20
2023-05-01T04:45:18.093Z,14.20
2023-05-01T04:47:45.130Z,14.30
2023-05-01T04:50:12.158Z,14.30
2023-05-01T04:52:39.149Z,14.20
2023-05-01T04:55:09.350Z,14.20
2023-05-01T04:57:37.326Z,14.20
2023-05-01T05:00:05.145Z,14.10
2023-05-01T05:02:32.399Z,13.80
2023-05-01T05:04:59.304Z,13.60
2023-05-01T05:07:26.340Z,13.60
2023-05-01T05:09:53.447Z,13.60
2023-05-01T05:12:20.469Z,13.60
2023-05-01T05:14:48.024Z,13.70
2023-05-01T05:17:14.867Z,13.80
2023-05-01T05:19:41.613Z,13.90
2023-05-01T05:22:08.692Z,13.90
2023-05-01T05:24:35.690Z,13.80
2023-05-01T05:27:04.030Z,13.90
2023-05-01T05:29:31.022Z,13.90
2023-05-01T05:31:59.647Z,14.10
2023-05-01T05:34:27.643Z,14.10
2023-05-01T05:36:54.622Z,14.00
2023-05-01T05:39:24.648Z,13.90
2023-05-01T05:41:53.652Z,14.00
2023-05-01T05:44:20.810Z,13.80
2023-05-01T05:46:47.721Z,14.00
2023-05-01T05:49:14.754Z,14.30
2023-05-01T05:51:41.868Z,14.30
2023-05-01T05:54:08.882Z,14.20
2023-05-01T05:56:36.090Z,14.00
2023-05-01T05:59:04.592Z,14.10
2023-05-01T06:01:32.319Z,14.20
2023-05-01T06:03:59.477Z,14.50
2023-05-01T06:06:27.642Z,14.50
2023-05-01T06:08:54.801Z,14.70
2023-05-01T06:11:22.419Z,14.90
2023-05-01T06:13:55.280Z,15.20
2023-05-01T06:16:25.616Z,15.30
2023-05-01T06:18:53.450Z,15.60
2023-05-01T06:21:20.418Z,15.90
2023-05-01T06:23:55.465Z,16.20
2023-05-01T06:26:26.352Z,16.20
2023-05-01T06:28:55.479Z,16.20
2023-05-01T06:31:22.414Z,16.20
2023-05-01T06:33:50.224Z,16.30
2023-05-01T06:36:17.262Z,16.30
2023-05-01T06:38:48.666Z,16.30
2023-05-01T06:41:16.865Z,16.40
2023-05-01T06:43:43.806Z,16.60
2023-05-01T06:46:10.982Z,16.50
2023-05-01T06:48:38.322Z,16.60
2023-05-01T06:51:05.502Z,16.80
2023-05-01T06:53:32.383Z,17.00
2023-05-01T06:55:59.466Z,17.20
2023-05-01T06:58:27.337Z,17.40
2023-05-01T07:00:54.620Z,17.30
2023-05-01T07:03:21.761Z,17.40
2023-05-01T07:05:48.844Z,17.60
2023-05-01T07:08:16.047Z,17.80
2023-05-01T07:10:43.627Z,18.00
2023-05-01T07:13:10.508Z,18.10
2023-05-01T07:15:37.853Z,18.20
2023-05-01T07:18:07.967Z,18.20
2023-05-01T07:20:35.069Z,18.50
2023-05-01T07:23:01.897Z,18.80
2023-05-01T07:25:31.229Z,18.80
2023-05-01T07:28:00.763Z,19.30
2023-05-01T07:30:30.335Z,19.70
2023-05-01T07:32:59.950Z,20.20
2023-05-01T07:35:27.421Z,20.60
2023-05-01T07:37:55.069Z,21.40
2023-05-01T07:40:22.214Z,23.60
2023-05-01T07:42:49.340Z,24.70
2023-05-01T07:45:16.729Z,25.70
2023-05-01T07:47:43.663Z,26.70
2023-05-01T07:50:11.713Z,27.90
2023-05-01T07:52:39.656Z,25.70
2023-05-01T07:55:07.315Z,24.90
2023-05-01T07:57:35.495Z,24.40
2023-05-01T08:00:02.302Z,24.80
2023-05-01T08:02:29.514Z,25.40
2023-05-01T08:04:56.620Z,26.20
2023-05-01T08:07:23.480Z,26.30
2023-05-01T08:09:50.626Z,26.30
2023-05-01T08:12:17.561Z,26.80
2023-05-01T08:14:44.622Z,27.70
2023-05-01T08:17:11.704Z,29.30
2023-05-01T08:19:38.736Z,30.60
2023-05-01T08:22:05.623Z,31.90
2023-05-01T08:24:32.384Z,32.50
2023-05-01T08:26:59.524Z,31.90
2023-05-01T08:29:26.505Z,31.40
2023-05-01T08:31:53.660Z,31.40
2023-05-01T08:34:20.617Z,32.00
2023-05-01T08:36:47.636Z,32.80
2023-05-01T08:39:15.536Z,33.80
2023-05-01T08:41:46.983Z,33.20
2023-05-01T08:44:16.707Z,32.20
2023-05-01T08:46:46.511Z,32.70
2023-05-01T08:49:17.127Z,34.20
2023-05-01T08:51:50.037Z,35.50
2023-05-01T08:54:19.723Z,36.10
2023-05-01T08:56:53.430Z,35.40
2023-05-01T08:59:23.813Z,33.90
2023-05-01T09:01:52.334Z,32.70
2023-05-01T09:04:19.608Z,32.30
2023-05-01T09:06:46.842Z,31.50
2023-05-01T09:09:13.652Z,31.10
2023-05-01T09:11:43.075Z,30.30
2023-05-01T09:14:09.833Z,29.70
2023-05-01T09:16:37.040Z,30.10
2023-05-01T09:19:03.979Z,30.20
2023-05-01T09:21:32.075Z,29.80
2023-05-01T09:23:58.951Z,29.10
2023-05-01T09:26:26.839Z,28.70
2023-05-01T09:28:58.014Z,28.30
2023-05-01T09:31:29.663Z,27.90
2023-05-01T09:33:58.508Z,27.00
2023-05-01T09:36:27.951Z,26.60
2023-05-01T09:38:54.976Z,26.10
2023-05-01T09:41:22.863Z,26.10
2023-05-01T09:43:54.819Z,26.90
2023-05-01T09:46:24.321Z,28.00
2023-05-01T09:49:03.308Z,27.60
2023-05-01T09:51:32.860Z,27.30
2023-05-01T09:54:02.171Z,26.90
2023-05-01T09:56:31.673Z,26.80
2023-05-01T09:59:14.199Z,26.80
2023-05-01T10:01:46.553Z,26.70
2023-05-01T10:04:14.323Z,26.70
2023-05-01T10:06:42.134Z,27.00
2023-05-01T10:09:17.596Z,27.40
2023-05-01T10:11:49.342Z,27.50
2023-05-01T10:14:16.624Z,28.50
2023-05-01T10:16:44.687Z,28.50
2023-05-01T10:19:12.651Z,29.10
2023-05-01T10:21:39.667Z,28.90
2023-05-01T10:24:08.278Z,28.40
2023-05-01T10:26:36.444Z,27.90
2023-05-01T10:29:04.373Z,27.20
2023-05-01T10:31:33.062Z,25.60
2023-05-01T10:34:02.169Z,25.30
2023-05-01T10:36:44.754Z,24.00
2023-05-01T10:39:46.672Z,24.10
2023-05-01T10:42:32.185Z,24.60
2023-05-01T10:45:28.284Z,25.40
2023-05-01T10:47:55.497Z,25.80
2023-05-01T10:50:22.466Z,26.20
2023-05-01T10:53:20.176Z,26.50
2023-05-01T10:55:49.230Z,26.90
2023-05-01T10:58:41.000Z,26.20
2023-05-01T11:01:36.148Z,26.00
2023-05-01T11:04:07.687Z,26.50
2023-05-01T11:06:36.810Z,27.00
2023-05-01T11:09:23.893Z,27.00
2023-05-01T11:11:51.233Z,26.90
2023-05-01T11:14:18.066Z,26.70
2023-05-01T11:16:46.449Z,26.60
2023-05-01T11:19:22.762Z,25.50
2023-05-01T11:21:54.184Z,23.20
2023-05-01T11:24:21.028Z,22.90
2023-05-01T11:26:49.189Z,23.30
2023-05-01T11:29:16.086Z,23.90
2023-05-01T11:31:48.257Z,24.20
2023-05-01T11:34:15.834Z,23.20
2023-05-01T11:36:50.317Z,22.70
2023-05-01T11:39:17.855Z,21.90
2023-05-01T11:41:46.728Z,22.50
2023-05-01T11:44:18.272Z,22.50
2023-05-01T11:46:45.714Z,24.10
2023-05-01T11:49:12.925Z,24.90
2023-05-01T11:51:40.076Z,23.70
2023-05-01T11:54:09.544Z,25.00
2023-05-01T11:56:37.739Z,26.20
2023-05-01T11:59:16.515Z,28.50
2023-05-01T12:01:47.127Z,29.80
2023-05-01T12:04:31.563Z,27.90
2023-05-01T12:06:59.062Z,29.20
2023-05-01T12:09:27.397Z,29.40
2023-05-01T12:11:54.734Z,28.80
2023-05-01T12:14:22.321Z,27.90
2023-05-01T12:16:49.648Z,27.50
2023-05-01T12:19:17.551Z,27.10
2023-05-01T12:21:44.784Z,26.80
2023-05-01T12:24:15.002Z,27.20
2023-05-01T12:26:42.797Z,26.90
2023-05-01T12:29:10.178Z,25.80
2023-05-01T12:31:45.720Z,25.20
2023-05-01T12:34:12.647Z,24.50
2023-05-01T12:36:39.576Z,24.10
2023-05-01T12:39:14.301Z,24.00
2023-05-01T12:41:49.209Z,23.90
2023-05-01T12:44:18.490Z,24.40
2023-05-01T12:46:47.393Z,24.70
2023-05-01T12:49:21.346Z,25.40
2023-05-01T12:51:49.845Z,25.80
2023-05-01T12:54:24.280Z,25.80
2023-05-01T12:56:54.825Z,25.20
2023-05-01T12:59:27.295Z,24.50
2023-05-01T13:02:02.155Z,25.00
2023-05-01T13:04:29.575Z,25.30
2023-05-01T13:06:57.747Z,25.70
2023-05-01T13:09:30.817Z,26.70
2023-05-01T13:12:02.278Z,29.10
2023-05-01T13:14:40.571Z,26.30
2023-05-01T13:17:11.724Z,24.10
2023-05-01T13:19:39.435Z,23.60
2023-05-01T13:22:06.720Z,21.80
2023-05-01T13:24:39.650Z,20.20
2023-05-01T13:27:08.657Z,19.70
2023-05-01T13:29:36.313Z,19.00
2023-05-01T13:32:06.766Z,18.90
2023-05-01T13:34:34.617Z,19.10
2023-05-01T13:37:02.695Z,19.40
2023-05-01T13:39:29.748Z,19.70
2023-05-01T13:41:56.606Z,19.80
2023-05-01T13:44:23.622Z,19.70
2023-05-01T13:46:50.697Z,19.40
2023-05-01T13:49:22.745Z,19.00
2023-05-01T13:51:49.967Z,18.90
2023-05-01T13:54:17.858Z,18.90
2023-05-01T13:56:44.659Z,18.60
2023-05-01T13:59:11.710Z,18.30
2023-05-01T14:01:45.939Z,18.20
2023-05-01T14:04:21.695Z,18.10
2023-05-01T14:06:49.055Z,18.30
2023-05-01T14:09:19.413Z,18.60
2023-05-01T14:11:48.059Z,18.60
2023-05-01T14:14:18.521Z,18.70
2023-05-01T14:16:50.459Z,18.70
2023-05-01T14:19:18.315Z,18.80
2023-05-01T14:21:45.706Z,19.30
2023-05-01T14:24:14.817Z,19.50
2023-05-01T14:26:44.334Z,19.50
2023-05-01T14:29:17.092Z,19.20
2023-05-01T14:31:45.070Z,19.10
2023-05-01T14:34:17.365Z,19.50
2023-05-01T14:36:44.122Z,19.30
2023-05-01T14:39:12.429Z,18.90
2023-05-01T14:41:42.910Z,18.80
2023-05-01T14:44:18.635Z,19.10
2023-05-01T14:46:52.370Z,19.00
2023-05-01T14:49:22.329Z,19.40
2023-05-01T14:51:51.632Z,19.60
2023-05-01T14:54:27.502Z,19.90
2023-05-01T14:57:01.682Z,20.20
2023-05-01T14:59:31.513Z,19.90
2023-05-01T15:01:58.660Z,19.30
2023-05-01T15:04:26.520Z,19.50
2023-05-01T15:06:53.693Z,19.70
2023-05-01T15:09:20.576Z,19.90
2023-05-01T15:11:47.672Z,20.20
2023-05-01T15:14:14.765Z,20.30
2023-05-01T15:16:41.854Z,20.50
2023-05-01T15:19:08.734Z,19.90
2023-05-01T15:21:35.805Z,19.00
2023-05-01T15:24:02.876Z,18.70
2023-05-01T15:26:29.921Z,18.50
2023-05-01T15:28:56.916Z,18.30
2023-05-01T15:31:24.051Z,18.50
2023-05-01T15:33:51.054Z,18.30
2023-05-01T15:36:18.756Z,18.10
2023-05-01T15:38:47.282Z,18.10
2023-05-01T15:41:15.928Z,18.00
2023-05-01T15:43:43.758Z,18.00
2023-05-01T15:46:11.734Z,18.10
2023-05-01T15:48:38.842Z,18.40
2023-05-01T15:51:05.860Z,18.70
2023-05-01T15:53:32.806Z,18.80
2023-05-01T15:55:59.873Z,18.80
2023-05-01T15:58:26.882Z,18.40
2023-05-01T16:00:53.673Z,18.10
2023-05-01T16:03:20.942Z,18.00
2023-05-01T16:05:48.126Z,18.10
2023-05-01T16:08:15.995Z,18.20
2023-05-01T16:10:42.910Z,18.30
2023-05-01T16:13:10.002Z,17.90
2023-05-01T16:15:37.987Z,17.70
2023-05-01T16:18:05.332Z,17.50
2023-05-01T16:20:41.739Z,17.50
2023-05-01T16:23:08.921Z,17.40
2023-05-01T16:25:35.910Z,17.60
2023-05-01T16:28:06.030Z,17.70
2023-05-01T16:30:32.882Z,17.60
2023-05-01T16:33:03.064Z,17.30
2023-05-01T16:35:31.744Z,17.10
2023-05-01T16:37:59.903Z,17.00
2023-05-01T16:40:26.751Z,17.10
2023-05-01T16:42:54.866Z,17.10
2023-05-01T16:45:22.155Z,17.20
2023-05-01T16:47:48.975Z,17.20
2023-05-01T16:50:17.108Z,17.20
2023-05-01T16:52:44.131Z,17.30
2023-05-01T16:55:11.563Z,17.40
2023-05-01T16:57:38.563Z,17.70
2023-05-01T17:00:09.316Z,17.80
2023-05-01T17:02:36.941Z,17.80
2023-05-01T17:05:04.243Z,17.70
2023-05-01T17:07:31.640Z,17.60
2023-05-01T17:09:59.106Z,17.50
2023-05-01T17:12:27.710Z,17.40
2023-05-01T17:14:54.959Z,17.20
2023-05-01T17:17:22.382Z,17.00
2023-05-01T17:19:49.579Z,17.00
2023-05-01T17:22:16.513Z,16.90
2023-05-01T17:24:43.420Z,16.90
2023-05-01T17:27:10.804Z,16.90
2023-05-01T17:29:37.607Z,17.00
2023-05-01T17:32:05.007Z,17.10
2023-05-01T17:34:32.109Z,17.10
2023-05-01T17:36:59.044Z,17.20
2023-05-01T17:39:28.066Z,17.20
2023-05-01T17:41:55.369Z,17.00
2023-05-01T17:44:22.070Z,16.90
2023-05-01T17:46:48.932Z,16.60
2023-05-01T17:49:16.220Z,16.40
2023-05-01T17:51:45.139Z,16.30
2023-05-01T17:54:12.213Z,16.20
2023-05-01T17:56:39.140Z,16.00
2023-05-01T17:59:06.208Z,16.00
2023-05-01T18:01:34.574Z,16.00
2023-05-01T18:04:01.877Z,15.90
2023-05-01T18:06:29.006Z,15.80
2023-05-01T18:08:56.025Z,15.80
2023-05-01T18:11:23.116Z,15.70
2023-05-01T18:13:50.452Z,15.60
2023-05-01T18:16:18.560Z,15.50
2023-05-01T18:18:46.983Z,15.50
2023-05-01T18:21:14.620Z,15.50
2023-05-01T18:23:41.564Z,15.60
2023-05-01T18:26:08.696Z,15.60
2023-05-01T18:28:35.702Z,15.50
2023-05-01T18:31:03.695Z,15.50
2023-05-01T18:33:30.692Z,15.30
2023-05-01T18:35:58.020Z,15.30
2023-05-01T18:38:26.348Z,15.20
2023-05-01T18:40:55.031Z,15.10
2023-05-01T18:43:22.085Z,15.10
2023-05-01T18:45:49.109Z,15.10
2023-05-01T18:48:16.333Z,15.10
2023-05-01T18:50:47.162Z,15.10
2023-05-01T18:53:18.506Z,15.10
2023-05-01T18:55:45.577Z,15.10
2023-05-01T18:58:12.542Z,15.20
2023-05-01T19:00:39.261Z,15.20
2023-05-01T19:03:07.231Z,15.30
2023-05-01T19:05:34.299Z,15.30
2023-05-01T19:08:05.088Z,15.10
2023-05-01T19:10:31.963Z,15.00
2023-05-01T19:13:00.196Z,15.10
2023-05-01T19:15:27.231Z,15.00
2023-05-01T19:17:54.776Z,15.10
2023-05-01T19:20:21.970Z,15.10
2023-05-01T19:22:48.865Z,15.00
2023-05-01T19:25:15.977Z,15.10
2023-05-01T19:27:42.884Z,15.10
2023-05-01T19:30:09.875Z,15.00
2023-05-01T19:32:38.898Z,15.00
2023-05-01T19:35:06.403Z,15.10
2023-05-01T19:37:33.456Z,15.00
2023-05-01T19:40:00.493Z,15.00
2023-05-01T19:42:27.685Z,15.00
2023-05-01T19:44:54.665Z,15.00
2023-05-01T19:47:21.789Z,15.00
2023-05-01T19:49:48.738Z,14.70
2023-05-01T19:52:15.822Z,14.50
2023-05-01T19:54:44.738Z,14.40
2023-05-01T19:57:12.919Z,14.30
2023-05-01T19:59:41.224Z,14.20
2023-05-01T20:02:08.185Z,14.10
2023-05-01T20:04:35.057Z,14.10
2023-05-01T20:07:04.479Z,14.00
2023-05-01T20:09:31.818Z,13.90
2023-05-01T20:11:58.834Z,13.90
2023-05-01T20:14:25.532Z,13.90
2023-05-01T20:16:53.052Z,13.70
2023-05-01T20:19:20.002Z,13.70
2023-05-01T20:21:47.093Z,13.70
2023-05-01T20:24:14.009Z,13.70
2023-05-01T20:26:41.164Z,13.70
2023-05-01T20:29:09.311Z,13.70
2023-05-01T20:31:36.524Z,13.70
2023-05-01T20:34:03.420Z,13.60
2023-05-01T20:36:30.543Z,13.60
2023-05-01T20:38:57.976Z,13.50
2023-05-01T20:41:25.737Z,13.50
2023-05-01T20:43:52.955Z,13.50
2023-05-01T20:46:20.326Z,13.50
2023-05-01T20:48:47.466Z,13.50
2023-05-01T20:51:18.028Z,13.50
2023-05-01T20:53:45.126Z,13.40
2023-05-01T20:56:12.265Z,13.40
2023-05-01T20:58:39.223Z,13.30
2023-05-01T21:01:06.638Z,13.30
2023-05-01T21:03:33.835Z,13.40
2023-05-01T21:06:01.923Z,13.50
2023-05-01T21:08:29.590Z,13.30
2023-05-01T21:10:56.746Z,13.20
2023-05-01T21:13:24.851Z,13.10
2023-05-01T21:15:52.504Z,13.10
2023-05-01T21:18:23.583Z,13.10
2023-05-01T21:20:50.570Z,13.20
2023-05-01T21:23:17.781Z,13.20
2023-05-01T21:25:44.922Z,13.10
2023-05-01T21:28:13.735Z,13.00
2023-05-01T21:30:41.064Z,12.90
2023-05-01T21:33:13.133Z,12.80
2023-05-01T21:35:45.100Z,12.90
2023-05-01T21:38:12.458Z,12.80
2023-05-01T21:40:43.026Z,12.90
2023-05-01T21:43:10.124Z,13.00
2023-05-01T21:45:40.397Z,12.90
2023-05-01T21:48:09.246Z,12.90
2023-05-01T21:50:38.123Z,13.00
2023-05-01T21:53:07.196Z,13.00
2023-05-01T21:55:34.226Z,13.00
2023-05-01T21:58:02.215Z,12.80
2023-05-01T22:00:29.902Z,12.60
2023-05-01T22:02:56.903Z,12.60
2023-05-01T22:05:24.010Z,12.70
2023-05-01T22:07:52.466Z,12.80
2023-05-01T22:10:19.746Z,13.00
2023-05-01T22:12:49.274Z,13.10
2023-05-01T22:15:16.598Z,13.10
2023-05-01T22:17:44.752Z,13.00
2023-05-01T22:20:11.877Z,12.90
2023-05-01T22:22:40.512Z,12.70
2023-05-01T22:25:08.739Z,12.70
2023-05-01T22:27:36.311Z,12.60
2023-05-01T22:30:05.029Z,12.50
2023-05-01T22:32:32.333Z,12.50
2023-05-01T22:34:59.320Z,12.50
2023-05-01T22:37:26.311Z,12.50
2023-05-01T22:39:53.592Z,12.30
2023-05-01T22:42:20.852Z,12.20
2023-05-01T22:44:48.213Z,12.10
2023-05-01T22:47:15.731Z,12.00
2023-05-01T22:49:42.857Z,11.80
2023-05-01T22:52:09.728Z,11.80
2023-05-01T22:54:37.681Z,11.90
2023-05-01T22:57:04.694Z,12.00
2023-05-01T22:59:31.487Z,11.90
2023-05-01T23:01:58.457Z,11.80
2023-05-01T23:04:25.413Z,11.70
2023-05-01T23:06:52.604Z,11.50
2023-05-01T23:09:19.469Z,11.40
2023-05-01T23:11:47.702Z,11.50
2023-05-01T23:14:18.268Z,11.60
2023-05-01T23:16:45.259Z,11.60
2023-05-01T23:19:23.258Z,11.70
2023-05-01T23:21:51.796Z,11.70
2023-05-01T23:24:20.297Z,11.50
2023-05-01T23:26:47.417Z,11.40
2023-05-01T23:29:16.013Z,11.50
2023-05-01T23:31:47.612Z,11.50
2023-05-01T23:34:19.335Z,11.50
2023-05-01T23:36:47.160Z,11.60
2023-05-01T23:39:14.600Z,11.70
2023-05-01T23:41:42.117Z,11.80
2023-05-01T23:44:09.991Z,11.80
2023-05-01T23:46:37.595Z,11.90
2023-05-01T23:49:04.915Z,11.80
2023-05-01T23:51:32.105Z,11.90
2023-05-01T23:53:59.184Z,11.90
2023-05-01T23:56:26.377Z,12.00
2023-05-01T23:58:53.150Z,12.10
